sensor_id;sensor_type;location;lat;lon;timestamp;P1;durP1;ratioP1;P2;durP2;ratioP2
25327;SDS011;13279;51.300;12.394;2022-11-27T00:01:09;33.00;;;11.63;;
25327;SDS011;13279;51.300;12.394;2022-11-27T00:03:37;29.40;;;12.77;;
25327;SDS011;13279;51.300;12.394;2022-11-27T00:06:05;29.67;;;12.10;;
25327;SDS011;13279;51.300;12.394;2022-11-27T00:08:33;26.77;;;12.13;;
25327;SDS011;13279;51.300;12.394;2022-11-27T00:11:04;29.50;;;13.37;;
25327;SDS011;13279;51.300;12.394;2022-11-27T00:13:34;26.57;;;13.47;;
25327;SDS011;13279;51.300;12.394;2022-11-27T00:16:02;24.80;;;12.13;;
25327;SDS011;13279;51.300;12.394;2022-11-27T00:18:30;30.80;;;11.77;;
25327;SDS011;13279;51.300;12.394;2022-11-27T00:21:00;26.67;;;11.93;;
25327;SDS011;13279;51.300;12.394;2022-11-27T00:23:28;28.07;;;13.10;;
25327;SDS011;13279;51.300;12.394;2022-11-27T00:25:56;26.37;;;12.40;;
25327;SDS011;13279;51.300;12.394;2022-11-27T00:28:23;34.03;;;13.60;;
25327;SDS011;13279;51.300;12.394;2022-11-27T00:30:52;28.43;;;12.53;;
25327;SDS011;13279;51.300;12.394;2022-11-27T00:33:23;26.63;;;12.80;;
25327;SDS011;13279;51.300;12.394;2022-11-27T00:35:50;29.00;;;11.93;;
25327;SDS011;13279;51.300;12.394;2022-11-27T00:38:18;29.40;;;11.43;;
25327;SDS011;13279;51.300;12.394;2022-11-27T00:40:46;33.67;;;12.63;;
25327;SDS011;13279;51.300;12.394;2022-11-27T00:43:13;28.03;;;13.57;;
25327;SDS011;13279;51.300;12.394;2022-11-27T00:45:41;26.17;;;12.40;;
25327;SDS011;13279;51.300;12.394;2022-11-27T00:48:10;31.43;;;12.43;;
25327;SDS011;13279;51.300;12.394;2022-11-27T00:50:37;25.37;;;12.17;;
25327;SDS011;13279;51.300;12.394;2022-11-27T00:53:04;32.93;;;12.97;;
25327;SDS011;13279;51.300;12.394;2022-11-27T00:55:32;25.80;;;12.13;;
25327;SDS011;13279;51.300;12.394;2022-11-27T00:57:59;31.60;;;12.13;;
25327;SDS011;13279;51.300;12.394;2022-11-27T01:00:27;24.63;;;11.90;;
25327;SDS011;13279;51.300;12.394;2022-11-27T01:02:54;33.07;;;12.77;;
25327;SDS011;13279;51.300;12.394;2022-11-27T01:05:23;24.33;;;11.53;;
25327;SDS011;13279;51.300;12.394;2022-11-27T01:07:50;28.13;;;12.67;;
25327;SDS011;13279;51.300;12.394;2022-11-27T01:10:18;29.30;;;12.37;;
25327;SDS011;13279;51.300;12.394;2022-11-27T01:12:47;22.23;;;12.10;;
25327;SDS011;13279;51.300;12.394;2022-11-27T01:15:15;25.93;;;11.90;;
25327;SDS011;13279;51.300;12.394;2022-11-27T01:17:42;23.33;;;11.73;;
25327;SDS011;13279;51.300;12.394;2022-11-27T01:20:10;17.13;;;10.93;;
25327;SDS011;13279;51.300;12.394;2022-11-27T01:22:39;27.93;;;12.03;;
25327;SDS011;13279;51.300;12.394;2022-11-27T01:25:07;30.07;;;11.87;;
25327;SDS011;13279;51.300;12.394;2022-11-27T01:27:35;32.13;;;12.73;;
25327;SDS011;13279;51.300;12.394;2022-11-27T01:30:02;23.47;;;12.50;;
25327;SDS011;13279;51.300;12.394;2022-11-27T01:32:30;28.00;;;12.47;;
25327;SDS011;13279;51.300;12.394;2022-11-27T01:34:58;28.70;;;12.63;;
25327;SDS011;13279;51.300;12.394;2022-11-27T01:37:25;24.57;;;11.77;;
25327;SDS011;13279;51.300;12.394;2022-11-27T01:39:53;31.13;;;12.43;;
25327;SDS011;13279;51.300;12.394;2022-11-27T01:42:21;33.57;;;12.43;;
25327;SDS011;13279;51.300;12.394;2022-11-27T01:44:49;27.63;;;11.77;;
25327;SDS011;13279;51.300;12.394;2022-11-27T01:47:23;19.70;;;11.37;;
25327;SDS011;13279;51.300;12.394;2022-11-27T01:49:58;26.80;;;12.40;;
25327;SDS011;13279;51.300;12.394;2022-11-27T01:52:33;31.23;;;12.73;;
25327;SDS011;13279;51.300;12.394;2022-11-27T01:55:04;32.13;;;12.43;;
25327;SDS011;13279;51.300;12.394;2022-11-27T01:57:38;30.97;;;12.67;;
25327;SDS011;13279;51.300;12.394;2022-11-27T02:00:10;21.60;;;10.97;;
25327;SDS011;13279;51.300;12.394;2022-11-27T02:02:40;27.33;;;12.50;;
25327;SDS011;13279;51.300;12.394;2022-11-27T02:05:08;23.40;;;11.63;;
25327;SDS011;13279;51.300;12.394;2022-11-27T02:07:36;29.70;;;12.17;;
25327;SDS011;13279;51.300;12.394;2022-11-27T02:10:06;23.83;;;12.40;;
25327;SDS011;13279;51.300;12.394;2022-11-27T02:12:35;36.23;;;12.73;;
25327;SDS011;13279;51.300;12.394;2022-11-27T02:15:13;28.87;;;11.67;;
25327;SDS011;13279;51.300;12.394;2022-11-27T02:17:47;20.80;;;11.67;;
25327;SDS011;13279;51.300;12.394;2022-11-27T02:20:22;25.53;;;12.27;;
25327;SDS011;13279;51.300;12.394;2022-11-27T02:23:02;22.20;;;11.37;;
25327;SDS011;13279;51.300;12.394;2022-11-27T02:25:43;24.70;;;11.87;;
25327;SDS011;13279;51.300;12.394;2022-11-27T02:28:23;23.00;;;11.10;;
25327;SDS011;13279;51.300;12.394;2022-11-27T02:31:09;29.40;;;12.10;;
25327;SDS011;13279;51.300;12.394;2022-11-27T02:33:42;27.13;;;11.33;;
25327;SDS011;13279;51.300;12.394;2022-11-27T02:36:18;27.43;;;12.23;;
25327;SDS011;13279;51.300;12.394;2022-11-27T02:38:50;26.03;;;11.87;;
25327;SDS011;13279;51.300;12.394;2022-11-27T02:41:22;21.33;;;11.60;;
25327;SDS011;13279;51.300;12.394;2022-11-27T02:43:55;25.30;;;12.87;;
25327;SDS011;13279;51.300;12.394;2022-11-27T02:46:25;31.30;;;12.40;;
25327;SDS011;13279;51.300;12.394;2022-11-27T02:48:55;31.90;;;12.60;;
25327;SDS011;13279;51.300;12.394;2022-11-27T02:51:25;21.10;;;10.80;;
25327;SDS011;13279;51.300;12.394;2022-11-27T02:53:59;26.87;;;11.50;;
25327;SDS011;13279;51.300;12.394;2022-11-27T02:56:30;22.87;;;11.60;;
25327;SDS011;13279;51.300;12.394;2022-11-27T02:59:00;22.47;;;11.30;;
25327;SDS011;13279;51.300;12.394;2022-11-27T03:01:33;21.33;;;11.73;;
25327;SDS011;13279;51.300;12.394;2022-11-27T03:04:05;21.00;;;11.77;;
25327;SDS011;13279;51.300;12.394;2022-11-27T03:06:38;25.93;;;12.57;;
25327;SDS011;13279;51.300;12.394;2022-11-27T03:09:11;30.50;;;12.77;;
25327;SDS011;13279;51.300;12.394;2022-11-27T03:11:41;25.80;;;11.50;;
25327;SDS011;13279;51.300;12.394;2022-11-27T03:14:09;24.87;;;11.07;;
25327;SDS011;13279;51.300;12.394;2022-11-27T03:16:41;30.10;;;12.53;;
25327;SDS011;13279;51.300;12.394;2022-11-27T03:19:16;22.33;;;11.57;;
25327;SDS011;13279;51.300;12.394;2022-11-27T03:21:47;21.70;;;12.20;;
25327;SDS011;13279;51.300;12.394;2022-11-27T03:24:18;26.23;;;12.43;;
25327;SDS011;13279;51.300;12.394;2022-11-27T03:26:45;25.30;;;12.60;;
25327;SDS011;13279;51.300;12.394;2022-11-27T03:29:17;27.23;;;12.37;;
25327;SDS011;13279;51.300;12.394;2022-11-27T03:31:48;27.30;;;12.00;;
25327;SDS011;13279;51.300;12.394;2022-11-27T03:34:16;23.63;;;12.67;;
25327;SDS011;13279;51.300;12.394;2022-11-27T03:36:44;26.20;;;12.30;;
25327;SDS011;13279;51.300;12.394;2022-11-27T03:39:11;26.30;;;13.20;;
25327;SDS011;13279;51.300;12.394;2022-11-27T03:41:40;26.57;;;12.40;;
25327;SDS011;13279;51.300;12.394;2022-11-27T03:44:16;23.83;;;12.00;;
25327;SDS011;13279;51.300;12.394;2022-11-27T03:46:54;19.83;;;11.43;;
25327;SDS011;13279;51.300;12.394;2022-11-27T03:49:33;26.00;;;12.27;;
25327;SDS011;13279;51.300;12.394;2022-11-27T03:52:10;23.60;;;12.80;;
25327;SDS011;13279;51.300;12.394;2022-11-27T03:54:43;24.40;;;11.90;;
25327;SDS011;13279;51.300;12.394;2022-11-27T03:57:19;23.90;;;11.87;;
25327;SDS011;13279;51.300;12.394;2022-11-27T03:59:52;32.27;;;13.10;;
25327;SDS011;13279;51.300;12.394;2022-11-27T04:02:29;26.17;;;12.40;;
25327;SDS011;13279;51.300;12.394;2022-11-27T04:05:04;21.57;;;12.53;;
25327;SDS011;13279;51.300;12.394;2022-11-27T04:07:32;33.27;;;12.13;;
25327;SDS011;13279;51.300;12.394;2022-11-27T04:09:59;26.40;;;12.60;;
25327;SDS011;13279;51.300;12.394;2022-11-27T04:12:27;28.53;;;13.40;;
25327;SDS011;13279;51.300;12.394;2022-11-27T04:14:54;33.27;;;13.03;;
25327;SDS011;13279;51.300;12.394;2022-11-27T04:17:22;31.40;;;12.47;;
25327;SDS011;13279;51.300;12.394;2022-11-27T04:19:50;20.47;;;13.10;;
25327;SDS011;13279;51.300;12.394;2022-11-27T04:22:18;27.70;;;13.50;;
25327;SDS011;13279;51.300;12.394;2022-11-27T04:24:45;32.40;;;12.47;;
25327;SDS011;13279;51.300;12.394;2022-11-27T04:27:13;29.67;;;13.03;;
25327;SDS011;13279;51.300;12.394;2022-11-27T04:29:40;25.27;;;12.33;;
25327;SDS011;13279;51.300;12.394;2022-11-27T04:32:07;29.03;;;12.77;;
25327;SDS011;13279;51.300;12.394;2022-11-27T04:34:35;28.50;;;11.93;;
25327;SDS011;13279;51.300;12.394;2022-11-27T04:37:04;25.20;;;12.57;;
25327;SDS011;13279;51.300;12.394;2022-11-27T04:39:31;26.30;;;13.17;;
25327;SDS011;13279;51.300;12.394;2022-11-27T04:41:58;33.23;;;12.27;;
25327;SDS011;13279;51.300;12.394;2022-11-27T04:44:26;27.17;;;13.00;;
25327;SDS011;13279;51.300;12.394;2022-11-27T04:46:53;28.97;;;12.17;;
25327;SDS011;13279;51.300;12.394;2022-11-27T04:49:21;28.60;;;12.63;;
25327;SDS011;13279;51.300;12.394;2022-11-27T04:51:48;24.40;;;12.27;;
25327;SDS011;13279;51.300;12.394;2022-11-27T04:54:17;33.53;;;12.30;;
25327;SDS011;13279;51.300;12.394;2022-11-27T04:56:44;28.90;;;12.93;;
25327;SDS011;13279;51.300;12.394;2022-11-27T04:59:12;26.90;;;11.27;;
25327;SDS011;13279;51.300;12.394;2022-11-27T05:01:39;23.73;;;12.17;;
25327;SDS011;13279;51.300;12.394;2022-11-27T05:04:07;22.37;;;12.07;;
25327;SDS011;13279;51.300;12.394;2022-11-27T05:06:34;27.00;;;12.23;;
25327;SDS011;13279;51.300;12.394;2022-11-27T05:09:02;29.30;;;12.13;;
25327;SDS011;13279;51.300;12.394;2022-11-27T05:11:31;21.87;;;11.87;;
25327;SDS011;13279;51.300;12.394;2022-11-27T05:13:58;24.33;;;12.30;;
25327;SDS011;13279;51.300;12.394;2022-11-27T05:16:40;32.33;;;12.90;;
25327;SDS011;13279;51.300;12.394;2022-11-27T05:19:07;27.23;;;12.27;;
25327;SDS011;13279;51.300;12.394;2022-11-27T05:21:35;30.43;;;14.20;;
25327;SDS011;13279;51.300;12.394;2022-11-27T05:26:31;33.03;;;13.17;;
25327;SDS011;13279;51.300;12.394;2022-11-27T05:29:00;29.33;;;13.47;;
25327;SDS011;13279;51.300;12.394;2022-11-27T05:31:27;39.50;;;14.47;;
25327;SDS011;13279;51.300;12.394;2022-11-27T05:33:55;26.67;;;11.90;;
25327;SDS011;13279;51.300;12.394;2022-11-27T05:36:23;24.83;;;12.17;;
25327;SDS011;13279;51.300;12.394;2022-11-27T05:38:50;28.13;;;13.43;;
25327;SDS011;13279;51.300;12.394;2022-11-27T05:41:18;29.80;;;14.37;;
25327;SDS011;13279;51.300;12.394;2022-11-27T05:43:47;26.53;;;12.50;;
25327;SDS011;13279;51.300;12.394;2022-11-27T05:46:16;36.73;;;13.97;;
25327;SDS011;13279;51.300;12.394;2022-11-27T05:48:44;28.00;;;13.90;;
25327;SDS011;13279;51.300;12.394;2022-11-27T05:51:12;23.67;;;12.23;;
25327;SDS011;13279;51.300;12.394;2022-11-27T05:53:40;24.07;;;11.93;;
25327;SDS011;13279;51.300;12.394;2022-11-27T05:56:08;23.47;;;11.90;;
25327;SDS011;13279;51.300;12.394;2022-11-27T05:58:38;29.87;;;12.57;;
25327;SDS011;13279;51.300;12.394;2022-11-27T06:01:08;28.80;;;13.43;;
25327;SDS011;13279;51.300;12.394;2022-11-27T06:03:37;25.63;;;12.13;;
25327;SDS011;13279;51.300;12.394;2022-11-27T06:06:04;27.03;;;12.33;;
25327;SDS011;13279;51.300;12.394;2022-11-27T06:08:32;36.30;;;14.17;;
25327;SDS011;13279;51.300;12.394;2022-11-27T06:11:04;25.47;;;12.17;;
25327;SDS011;13279;51.300;12.394;2022-11-27T06:13:33;22.50;;;11.30;;
25327;SDS011;13279;51.300;12.394;2022-11-27T06:16:05;23.77;;;12.27;;
25327;SDS011;13279;51.300;12.394;2022-11-27T06:18:36;26.77;;;11.03;;
25327;SDS011;13279;51.300;12.394;2022-11-27T06:21:07;21.90;;;11.13;;
25327;SDS011;13279;51.300;12.394;2022-11-27T06:23:36;30.67;;;12.77;;
25327;SDS011;13279;51.300;12.394;2022-11-27T06:26:11;24.87;;;11.80;;
25327;SDS011;13279;51.300;12.394;2022-11-27T06:28:39;31.57;;;12.17;;
25327;SDS011;13279;51.300;12.394;2022-11-27T06:31:09;25.43;;;12.00;;
25327;SDS011;13279;51.300;12.394;2022-11-27T06:33:38;29.50;;;11.57;;
25327;SDS011;13279;51.300;12.394;2022-11-27T06:36:06;22.87;;;12.07;;
25327;SDS011;13279;51.300;12.394;2022-11-27T06:38:34;28.57;;;11.47;;
25327;SDS011;13279;51.300;12.394;2022-11-27T06:41:04;28.47;;;11.60;;
25327;SDS011;13279;51.300;12.394;2022-11-27T06:43:32;24.10;;;10.50;;
25327;SDS011;13279;51.300;12.394;2022-11-27T06:46:00;27.57;;;10.33;;
25327;SDS011;13279;51.300;12.394;2022-11-27T06:48:30;26.33;;;11.90;;
25327;SDS011;13279;51.300;12.394;2022-11-27T06:50:58;28.43;;;11.40;;
25327;SDS011;13279;51.300;12.394;2022-11-27T06:53:26;25.87;;;11.47;;
25327;SDS011;13279;51.300;12.394;2022-11-27T06:55:54;31.50;;;12.10;;
25327;SDS011;13279;51.300;12.394;2022-11-27T06:58:22;26.70;;;11.23;;
25327;SDS011;13279;51.300;12.394;2022-11-27T07:00:55;28.07;;;11.30;;
25327;SDS011;13279;51.300;12.394;2022-11-27T07:03:24;33.43;;;11.37;;
25327;SDS011;13279;51.300;12.394;2022-11-27T07:05:53;21.30;;;11.73;;
25327;SDS011;13279;51.300;12.394;2022-11-27T07:08:20;28.93;;;11.50;;
25327;SDS011;13279;51.300;12.394;2022-11-27T07:10:48;24.60;;;11.90;;
25327;SDS011;13279;51.300;12.394;2022-11-27T07:13:15;28.10;;;11.47;;
25327;SDS011;13279;51.300;12.394;2022-11-27T07:15:43;35.57;;;11.63;;
25327;SDS011;13279;51.300;12.394;2022-11-27T07:18:11;21.37;;;10.03;;
25327;SDS011;13279;51.300;12.394;2022-11-27T07:20:38;24.40;;;10.97;;
25327;SDS011;13279;51.300;12.394;2022-11-27T07:23:07;27.10;;;10.87;;
25327;SDS011;13279;51.300;12.394;2022-11-27T07:25:36;29.13;;;11.03;;
25327;SDS011;13279;51.300;12.394;2022-11-27T07:28:03;24.60;;;10.83;;
25327;SDS011;13279;51.300;12.394;2022-11-27T07:30:30;25.70;;;10.73;;
25327;SDS011;13279;51.300;12.394;2022-11-27T07:32:58;21.13;;;11.03;;
25327;SDS011;13279;51.300;12.394;2022-11-27T07:35:25;24.00;;;10.90;;
25327;SDS011;13279;51.300;12.394;2022-11-27T07:37:53;28.57;;;11.93;;
25327;SDS011;13279;51.300;12.394;2022-11-27T07:40:22;22.57;;;10.97;;
25327;SDS011;13279;51.300;12.394;2022-11-27T07:42:49;31.23;;;10.27;;
25327;SDS011;13279;51.300;12.394;2022-11-27T07:45:16;19.10;;;10.07;;
25327;SDS011;13279;51.300;12.394;2022-11-27T07:47:44;17.90;;;10.23;;
25327;SDS011;13279;51.300;12.394;2022-11-27T07:50:11;20.03;;;10.30;;
25327;SDS011;13279;51.300;12.394;2022-11-27T07:52:38;20.17;;;9.47;;
25327;SDS011;13279;51.300;12.394;2022-11-27T07:55:06;17.63;;;9.20;;
25327;SDS011;13279;51.300;12.394;2022-11-27T07:57:36;20.77;;;9.57;;
25327;SDS011;13279;51.300;12.394;2022-11-27T08:00:04;21.67;;;10.53;;
25327;SDS011;13279;51.300;12.394;2022-11-27T08:02:32;17.40;;;9.37;;
25327;SDS011;13279;51.300;12.394;2022-11-27T08:05:00;16.57;;;8.97;;
25327;SDS011;13279;51.300;12.394;2022-11-27T08:07:28;15.37;;;9.00;;
25327;SDS011;13279;51.300;12.394;2022-11-27T08:09:56;12.63;;;7.97;;
25327;SDS011;13279;51.300;12.394;2022-11-27T08:12:24;15.40;;;7.97;;
25327;SDS011;13279;51.300;12.394;2022-11-27T08:14:53;15.80;;;8.27;;
25327;SDS011;13279;51.300;12.394;2022-11-27T08:17:21;14.03;;;8.07;;
25327;SDS011;13279;51.300;12.394;2022-11-27T08:19:48;20.17;;;8.93;;
25327;SDS011;13279;51.300;12.394;2022-11-27T08:22:15;13.20;;;7.30;;
25327;SDS011;13279;51.300;12.394;2022-11-27T08:24:45;17.37;;;8.07;;
25327;SDS011;13279;51.300;12.394;2022-11-27T08:27:14;17.60;;;7.80;;
25327;SDS011;13279;51.300;12.394;2022-11-27T08:29:41;12.53;;;7.70;;
25327;SDS011;13279;51.300;12.394;2022-11-27T08:32:10;13.00;;;6.40;;
25327;SDS011;13279;51.300;12.394;2022-11-27T08:34:56;15.13;;;7.57;;
25327;SDS011;13279;51.300;12.394;2022-11-27T08:37:23;9.87;;;6.83;;
25327;SDS011;13279;51.300;12.394;2022-11-27T08:39:51;9.87;;;6.43;;
25327;SDS011;13279;51.300;12.394;2022-11-27T08:42:18;11.57;;;6.93;;
25327;SDS011;13279;51.300;12.394;2022-11-27T08:44:46;9.50;;;6.67;;
25327;SDS011;13279;51.300;12.394;2022-11-27T08:47:15;12.77;;;6.77;;
25327;SDS011;13279;51.300;12.394;2022-11-27T08:49:43;9.00;;;5.63;;
25327;SDS011;13279;51.300;12.394;2022-11-27T08:52:10;13.63;;;6.00;;
25327;SDS011;13279;51.300;12.394;2022-11-27T08:54:38;8.27;;;5.73;;
25327;SDS011;13279;51.300;12.394;2022-11-27T08:57:05;11.93;;;6.10;;
25327;SDS011;13279;51.300;12.394;2022-11-27T08:59:33;16.67;;;6.50;;
25327;SDS011;13279;51.300;12.394;2022-11-27T09:02:00;9.03;;;5.63;;
25327;SDS011;13279;51.300;12.394;2022-11-27T09:04:30;9.87;;;5.77;;
25327;SDS011;13279;51.300;12.394;2022-11-27T09:06:57;12.47;;;6.30;;
25327;SDS011;13279;51.300;12.394;2022-11-27T09:09:25;9.50;;;5.87;;
25327;SDS011;13279;51.300;12.394;2022-11-27T09:11:54;13.03;;;5.37;;
25327;SDS011;13279;51.300;12.394;2022-11-27T09:14:21;9.77;;;5.90;;
25327;SDS011;13279;51.300;12.394;2022-11-27T09:16:48;11.47;;;5.83;;
25327;SDS011;13279;51.300;12.394;2022-11-27T09:19:16;8.87;;;5.87;;
25327;SDS011;13279;51.300;12.394;2022-11-27T09:21:45;12.30;;;5.57;;
25327;SDS011;13279;51.300;12.394;2022-11-27T09:24:14;9.23;;;6.27;;
25327;SDS011;13279;51.300;12.394;2022-11-27T09:26:42;10.03;;;6.10;;
25327;SDS011;13279;51.300;12.394;2022-11-27T09:29:10;9.50;;;5.50;;
25327;SDS011;13279;51.300;12.394;2022-11-27T09:31:56;13.17;;;6.30;;
25327;SDS011;13279;51.300;12.394;2022-11-27T09:34:24;8.67;;;6.17;;
25327;SDS011;13279;51.300;12.394;2022-11-27T09:36:53;11.53;;;6.17;;
25327;SDS011;13279;51.300;12.394;2022-11-27T09:39:20;8.43;;;5.50;;
25327;SDS011;13279;51.300;12.394;2022-11-27T09:41:49;12.87;;;6.13;;
25327;SDS011;13279;51.300;12.394;2022-11-27T09:44:25;11.57;;;4.90;;
25327;SDS011;13279;51.300;12.394;2022-11-27T09:47:00;11.60;;;5.63;;
25327;SDS011;13279;51.300;12.394;2022-11-27T09:49:36;8.60;;;5.03;;
25327;SDS011;13279;51.300;12.394;2022-11-27T09:52:13;9.93;;;5.60;;
25327;SDS011;13279;51.300;12.394;2022-11-27T09:54:49;9.73;;;5.27;;
25327;SDS011;13279;51.300;12.394;2022-11-27T09:57:24;9.47;;;5.40;;
25327;SDS011;13279;51.300;12.394;2022-11-27T09:59:55;9.60;;;4.60;;
25327;SDS011;13279;51.300;12.394;2022-11-27T10:02:27;8.87;;;5.00;;
25327;SDS011;13279;51.300;12.394;2022-11-27T10:04:57;18.77;;;6.57;;
25327;SDS011;13279;51.300;12.394;2022-11-27T10:07:32;10.63;;;5.90;;
25327;SDS011;13279;51.300;12.394;2022-11-27T10:10:11;8.63;;;4.80;;
25327;SDS011;13279;51.300;12.394;2022-11-27T10:12:51;9.57;;;4.70;;
25327;SDS011;13279;51.300;12.394;2022-11-27T10:15:30;6.00;;;4.27;;
25327;SDS011;13279;51.300;12.394;2022-11-27T10:18:05;15.57;;;4.87;;
25327;SDS011;13279;51.300;12.394;2022-11-27T10:20:39;11.30;;;5.10;;
25327;SDS011;13279;51.300;12.394;2022-11-27T10:23:17;16.13;;;5.03;;
25327;SDS011;13279;51.300;12.394;2022-11-27T10:25:53;7.53;;;4.83;;
25327;SDS011;13279;51.300;12.394;2022-11-27T10:28:26;7.87;;;4.87;;
25327;SDS011;13279;51.300;12.394;2022-11-27T10:30:59;11.00;;;5.57;;
25327;SDS011;13279;51.300;12.394;2022-11-27T10:33:32;12.00;;;5.07;;
25327;SDS011;13279;51.300;12.394;2022-11-27T10:36:04;10.27;;;4.40;;
25327;SDS011;13279;51.300;12.394;2022-11-27T10:38:41;6.77;;;3.97;;
25327;SDS011;13279;51.300;12.394;2022-11-27T10:41:11;7.47;;;4.40;;
25327;SDS011;13279;51.300;12.394;2022-11-27T10:43:47;7.33;;;4.27;;
25327;SDS011;13279;51.300;12.394;2022-11-27T10:46:20;8.23;;;4.30;;
25327;SDS011;13279;51.300;12.394;2022-11-27T10:48:53;13.50;;;4.07;;
25327;SDS011;13279;51.300;12.394;2022-11-27T10:51:21;10.00;;;5.27;;
25327;SDS011;13279;51.300;12.394;2022-11-27T10:53:59;13.80;;;5.10;;
25327;SDS011;13279;51.300;12.394;2022-11-27T10:56:35;14.60;;;5.43;;
25327;SDS011;13279;51.300;12.394;2022-11-27T10:59:12;10.87;;;4.60;;
25327;SDS011;13279;51.300;12.394;2022-11-27T11:01:45;9.27;;;4.83;;
25327;SDS011;13279;51.300;12.394;2022-11-27T11:04:19;13.73;;;5.23;;
25327;SDS011;13279;51.300;12.394;2022-11-27T11:06:48;7.60;;;4.87;;
25327;SDS011;13279;51.300;12.394;2022-11-27T11:09:17;10.87;;;4.93;;
25327;SDS011;13279;51.300;12.394;2022-11-27T11:11:49;7.07;;;4.43;;
25327;SDS011;13279;51.300;12.394;2022-11-27T11:14:18;8.20;;;4.53;;
25327;SDS011;13279;51.300;12.394;2022-11-27T11:16:47;8.13;;;4.33;;
25327;SDS011;13279;51.300;12.394;2022-11-27T11:19:23;10.70;;;4.13;;
25327;SDS011;13279;51.300;12.394;2022-11-27T11:21:54;7.13;;;4.27;;
25327;SDS011;13279;51.300;12.394;2022-11-27T11:24:26;9.90;;;4.97;;
25327;SDS011;13279;51.300;12.394;2022-11-27T11:26:55;13.30;;;4.70;;
25327;SDS011;13279;51.300;12.394;2022-11-27T11:29:29;11.20;;;4.77;;
25327;SDS011;13279;51.300;12.394;2022-11-27T11:32:07;11.23;;;4.73;;
25327;SDS011;13279;51.300;12.394;2022-11-27T11:34:40;8.87;;;5.33;;
25327;SDS011;13279;51.300;12.394;2022-11-27T11:37:17;7.80;;;4.73;;
25327;SDS011;13279;51.300;12.394;2022-11-27T11:39:56;9.03;;;5.13;;
25327;SDS011;13279;51.300;12.394;2022-11-27T11:42:26;8.50;;;4.67;;
25327;SDS011;13279;51.300;12.394;2022-11-27T11:45:00;8.53;;;4.90;;
25327;SDS011;13279;51.300;12.394;2022-11-27T11:47:29;13.03;;;4.70;;
25327;SDS011;13279;51.300;12.394;2022-11-27T11:49:57;10.73;;;4.63;;
25327;SDS011;13279;51.300;12.394;2022-11-27T11:52:28;11.27;;;4.67;;
25327;SDS011;13279;51.300;12.394;2022-11-27T11:55:12;12.53;;;5.20;;
25327;SDS011;13279;51.300;12.394;2022-11-27T11:58:01;14.43;;;5.50;;
25327;SDS011;13279;51.300;12.394;2022-11-27T12:00:46;8.93;;;4.80;;
25327;SDS011;13279;51.300;12.394;2022-11-27T12:03:27;12.07;;;5.17;;
25327;SDS011;13279;51.300;12.394;2022-11-27T12:06:09;11.23;;;4.60;;
25327;SDS011;13279;51.300;12.394;2022-11-27T12:08:48;11.30;;;5.10;;
25327;SDS011;13279;51.300;12.394;2022-11-27T12:11:25;12.70;;;5.27;;
25327;SDS011;13279;51.300;12.394;2022-11-27T12:14:01;10.13;;;5.57;;
25327;SDS011;13279;51.300;12.394;2022-11-27T12:16:40;9.20;;;5.10;;
25327;SDS011;13279;51.300;12.394;2022-11-27T12:22:21;10.67;;;5.20;;
25327;SDS011;13279;51.300;12.394;2022-11-27T12:25:03;13.47;;;5.10;;
25327;SDS011;13279;51.300;12.394;2022-11-27T12:27:49;8.00;;;4.97;;
25327;SDS011;13279;51.300;12.394;2022-11-27T12:30:28;11.43;;;5.50;;
25327;SDS011;13279;51.300;12.394;2022-11-27T12:33:12;7.67;;;5.13;;
25327;SDS011;13279;51.300;12.394;2022-11-27T12:35:53;11.37;;;4.73;;
25327;SDS011;13279;51.300;12.394;2022-11-27T12:38:30;9.87;;;4.93;;
25327;SDS011;13279;51.300;12.394;2022-11-27T12:41:14;9.57;;;5.87;;
25327;SDS011;13279;51.300;12.394;2022-11-27T12:43:53;12.00;;;5.30;;
25327;SDS011;13279;51.300;12.394;2022-11-27T12:46:26;11.40;;;5.40;;
25327;SDS011;13279;51.300;12.394;2022-11-27T12:49:00;14.77;;;5.37;;
25327;SDS011;13279;51.300;12.394;2022-11-27T12:51:36;8.30;;;5.40;;
25327;SDS011;13279;51.300;12.394;2022-11-27T12:54:08;9.00;;;5.27;;
25327;SDS011;13279;51.300;12.394;2022-11-27T12:56:41;10.37;;;4.50;;
25327;SDS011;13279;51.300;12.394;2022-11-27T12:59:15;10.97;;;5.10;;
25327;SDS011;13279;51.300;12.394;2022-11-27T13:01:49;11.23;;;4.97;;
25327;SDS011;13279;51.300;12.394;2022-11-27T13:04:23;13.00;;;5.40;;
25327;SDS011;13279;51.300;12.394;2022-11-27T13:06:57;14.00;;;4.90;;
25327;SDS011;13279;51.300;12.394;2022-11-27T13:09:36;13.63;;;6.40;;
25327;SDS011;13279;51.300;12.394;2022-11-27T13:12:08;11.37;;;5.13;;
25327;SDS011;13279;51.300;12.394;2022-11-27T13:14:39;10.03;;;5.13;;
25327;SDS011;13279;51.300;12.394;2022-11-27T13:17:09;10.60;;;5.20;;
25327;SDS011;13279;51.300;12.394;2022-11-27T13:19:43;10.40;;;5.30;;
25327;SDS011;13279;51.300;12.394;2022-11-27T13:22:13;6.43;;;4.50;;
25327;SDS011;13279;51.300;12.394;2022-11-27T13:24:45;8.93;;;4.83;;
25327;SDS011;13279;51.300;12.394;2022-11-27T13:27:14;10.73;;;4.83;;
25327;SDS011;13279;51.300;12.394;2022-11-27T13:29:46;13.87;;;5.20;;
25327;SDS011;13279;51.300;12.394;2022-11-27T13:32:18;11.83;;;5.20;;
25327;SDS011;13279;51.300;12.394;2022-11-27T13:34:48;13.70;;;5.20;;
25327;SDS011;13279;51.300;12.394;2022-11-27T13:37:21;11.00;;;5.00;;
25327;SDS011;13279;51.300;12.394;2022-11-27T13:40:00;17.53;;;5.10;;
25327;SDS011;13279;51.300;12.394;2022-11-27T13:42:32;11.00;;;4.90;;
25327;SDS011;13279;51.300;12.394;2022-11-27T13:45:03;11.93;;;4.63;;
25327;SDS011;13279;51.300;12.394;2022-11-27T13:47:37;9.53;;;5.33;;
25327;SDS011;13279;51.300;12.394;2022-11-27T13:50:07;7.90;;;4.27;;
25327;SDS011;13279;51.300;12.394;2022-11-27T13:52:37;8.17;;;4.73;;
25327;SDS011;13279;51.300;12.394;2022-11-27T13:55:23;7.27;;;4.27;;
25327;SDS011;13279;51.300;12.394;2022-11-27T13:57:52;9.57;;;5.03;;
25327;SDS011;13279;51.300;12.394;2022-11-27T14:00:30;8.70;;;5.20;;
25327;SDS011;13279;51.300;12.394;2022-11-27T14:03:00;8.13;;;4.60;;
25327;SDS011;13279;51.300;12.394;2022-11-27T14:05:33;10.37;;;4.37;;
25327;SDS011;13279;51.300;12.394;2022-11-27T14:08:14;7.00;;;4.43;;
25327;SDS011;13279;51.300;12.394;2022-11-27T14:10:51;9.37;;;4.67;;
25327;SDS011;13279;51.300;12.394;2022-11-27T14:13:22;9.90;;;4.83;;
25327;SDS011;13279;51.300;12.394;2022-11-27T14:16:01;15.00;;;4.80;;
25327;SDS011;13279;51.300;12.394;2022-11-27T14:18:35;9.10;;;5.43;;
25327;SDS011;13279;51.300;12.394;2022-11-27T14:21:02;11.83;;;5.30;;
25327;SDS011;13279;51.300;12.394;2022-11-27T14:23:31;9.03;;;5.07;;
25327;SDS011;13279;51.300;12.394;2022-11-27T14:26:00;8.93;;;4.80;;
25327;SDS011;13279;51.300;12.394;2022-11-27T14:28:30;11.90;;;4.83;;
25327;SDS011;13279;51.300;12.394;2022-11-27T14:31:02;13.23;;;5.80;;
25327;SDS011;13279;51.300;12.394;2022-11-27T14:33:31;11.73;;;5.80;;
25327;SDS011;13279;51.300;12.394;2022-11-27T14:36:00;10.83;;;6.43;;
25327;SDS011;13279;51.300;12.394;2022-11-27T14:38:29;11.73;;;5.83;;
25327;SDS011;13279;51.300;12.394;2022-11-27T14:41:08;11.47;;;5.60;;
25327;SDS011;13279;51.300;12.394;2022-11-27T14:43:37;11.77;;;6.27;;